Time,TemperatureF,DewpointF,PressureIn,WindDirection,WindDirectionDegrees,WindSpeedMPH,WindSpeedGustMPH,Humidity,HourlyPrecipIn,Conditions,Clouds,dailyrainin,SoftwareType,DateUTC
2013-12-09 00:02:00,52.6,50.9,30.05,SW,219,7.0,12.0,94,0.00,,,0.00,WeatherCatV1.23B16,2013-12-09 00:02:00,
2013-12-09 00:07:00,52.6,51.2,30.05,SSW,207,9.0,10.0,95,0.00,,,0.00,WeatherCatV1.23B16,2013-12-09 00:07:00,
2013-12-09 00:12:00,52.6,51.2,30.05,SSW,197,8.0,15.0,95,0.00,,,0.00,WeatherCatV1.23B16,2013-12-09 00:12:00,
2013-12-09 00:17:00,52.6,51.2,30.05,South,181,9.0,12.0,95,0.00,,,0.00,WeatherCatV1.23B16,2013-12-09 00:17:00,
2013-12-09 00:23:00,52.6,51.2,30.05,SSE,163,8.0,10.0,95,0.00,,,0.00,WeatherCatV1.23B16,2013-12-09 00:23:00,
2013-12-09 00:28:00,52.5,51.1,30.05,SW,232,9.0,17.0,95,0.00,,,0.00,WeatherCatV1.23B16,2013-12-09 00:28:00,
2013-12-09 00:33:00,52.6,51.2,30.05,SSW,193,11.0,16.0,95,0.00,,,0.00,WeatherCatV1.23B16,2013-12-09 00:33:00,
2013-12-09 00:38:00,52.6,51.2,30.05,SW,233,13.0,13.0,95,0.00,,,0.00,WeatherCatV1.23B16,2013-12-09 00:38:00,
2013-12-09 00:43:00,52.5,51.1,30.05,WSW,242,9.0,16.0,95,0.00,,,0.00,WeatherCatV1.23B16,2013-12-09 00:43:00,
2013-12-09 00:48:00,52.6,51.2,30.05,SW,217,11.0,15.0,95,0.00,,,0.00,WeatherCatV1.23B16,2013-12-09 00:48:00,
2013-12-09 00:54:00,52.6,51.2,30.05,SW,214,13.0,17.0,95,0.00,,,0.00,WeatherCatV1.23B16,2013-12-09 00:54:00,
2013-12-09 00:59:00,52.6,51.2,30.05,SW,214,6.0,16.0,95,0.00,,,0.00,WeatherCatV1.23B16,2013-12-09 00:59:00,
2013-12-09 01:05:00,52.5,51.1,30.04,SW,224,12.0,18.0,95,0.00,,,0.00,WeatherCatV1.23B16,2013-12-09 01:05:00,
2013-12-09 01:10:00,52.5,51.1,30.04,SW,224,8.0,17.0,95,0.00,,,0.00,WeatherCatV1.23B16,2013-12-09 01:10:00,
2013-12-09 01:15:00,52.5,51.1,30.04,SSW,211,13.0,16.0,95,0.00,,,0.00,WeatherCatV1.23B16,2013-12-09 01:15:00,
2013-12-09 01:20:00,52.5,51.1,30.04,SW,215,11.0,14.0,95,0.00,,,0.00,WeatherCatV1.23B16,2013-12-09 01:20:00,
2013-12-09 01:26:00,52.5,51.1,30.05,SSW,205,9.0,16.0,95,0.00,,,0.00,WeatherCatV1.23B16,2013-12-09 01:26:00,
2013-12-09 01:31:00,52.5,51.1,30.04,SW,229,14.0,16.0,95,0.00,,,0.00,WeatherCatV1.23B16,2013-12-09 01:31:00,
2013-12-09 01:36:00,52.5,50.8,30.04,SSW,206,10.0,16.0,94,0.00,,,0.00,WeatherCatV1.23B16,2013-12-09 01:36:00,
2013-12-09 01:41:00,52.6,50.9,30.05,SSW,197,12.0,19.0,94,0.00,,,0.00,WeatherCatV1.23B16,2013-12-09 01:41:00,
2013-12-09 01:46:00,52.5,50.8,30.05,South,183,12.0,18.0,94,0.00,,,0.00,WeatherCatV1.23B16,2013-12-09 01:46:00,
2013-12-09 01:51:00,52.5,50.8,30.05,South,191,10.0,12.0,94,0.00,,,0.00,WeatherCatV1.23B16,2013-12-09 01:51:00,
2013-12-09 01:56:00,52.6,50.9,30.05,SSW,193,6.0,17.0,94,0.00,,,0.00,WeatherCatV1.23B16,2013-12-09 01:56:00,
2013-12-09 02:02:00,52.5,50.8,30.05,SW,233,11.0,11.0,94,0.00,,,0.00,WeatherCatV1.23B16,2013-12-09 02:02:00,
2013-12-09 02:08:00,52.5,50.8,30.06,WSW,242,7.0,10.0,94,0.00,,,0.00,WeatherCatV1.23B16,2013-12-09 02:08:00,
2013-12-09 02:13:00,52.5,50.8,30.06,SW,221,9.0,11.0,94,0.00,,,0.00,WeatherCatV1.23B16,2013-12-09 02:13:00,
2013-12-09 02:18:00,52.4,50.7,30.06,SW,225,11.0,11.0,94,0.00,,,0.00,WeatherCatV1.23B16,2013-12-09 02:18:00,
2013-12-09 02:23:00,52.4,50.7,30.06,SW,226,11.0,11.0,94,0.00,,,0.00,WeatherCatV1.23B16,2013-12-09 02:23:00,
2013-12-09 02:28:00,52.4,50.7,30.06,SSW,212,12.0,12.0,94,0.00,,,0.00,WeatherCatV1.23B16,2013-12-09 02:28:00,
2013-12-09 02:34:00,52.4,50.7,30.06,SSW,198,15.0,15.0,94,0.00,,,0.00,WeatherCatV1.23B16,2013-12-09 02:34:00,
2013-12-09 02:39:00,52.4,50.7,30.06,SW,229,14.0,16.0,94,0.00,,,0.00,WeatherCatV1.23B16,2013-12-09 02:39:00,
2013-12-09 02:44:00,52.4,50.7,30.06,SW,217,11.0,13.0,94,0.00,,,0.00,WeatherCatV1.23B16,2013-12-09 02:44:00,
2013-12-09 02:49:00,52.4,50.7,30.06,SW,232,10.0,15.0,94,0.00,,,0.00,WeatherCatV1.23B16,2013-12-09 02:49:00,
2013-12-09 02:54:00,52.5,50.8,30.06,SW,225,7.0,13.0,94,0.00,,,0.00,WeatherCatV1.23B16,2013-12-09 02:54:00,
2013-12-09 02:59:00,52.5,50.8,30.06,SSW,204,10.0,19.0,94,0.00,,,0.00,WeatherCatV1.23B16,2013-12-09 02:59:00,
2013-12-09 03:04:00,52.5,50.5,30.06,SW,225,10.0,17.0,93,0.00,,,0.00,WeatherCatV1.23B16,2013-12-09 03:04:00,
2013-12-09 03:09:00,52.5,50.5,30.06,SW,225,13.0,15.0,93,0.00,,,0.00,WeatherCatV1.23B16,2013-12-09 03:09:00,
2013-12-09 03:14:00,52.4,50.4,30.06,SW,217,14.0,16.0,93,0.00,,,0.00,WeatherCatV1.23B16,2013-12-09 03:14:00,
2013-12-09 03:19:00,52.4,50.4,30.06,SW,217,11.0,16.0,93,0.00,,,0.00,WeatherCatV1.23B16,2013-12-09 03:19:00,
2013-12-09 03:24:00,52.5,50.5,30.06,SSW,208,6.0,11.0,93,0.00,,,0.00,WeatherCatV1.23B16,2013-12-09 03:24:00,
2013-12-09 03:30:00,52.5,50.5,30.06,SSW,201,9.0,11.0,93,0.00,,,0.00,WeatherCatV1.23B16,2013-12-09 03:30:00,
2013-12-09 03:35:00,52.4,50.4,30.06,South,176,10.0,13.0,93,0.00,,,0.00,WeatherCatV1.23B16,2013-12-09 03:35:00,
2013-12-09 03:40:00,52.4,50.4,30.06,South,174,11.0,11.0,93,0.00,,,0.00,WeatherCatV1.23B16,2013-12-09 03:40:00,
2013-12-09 03:46:00,52.4,50.4,30.06,SSW,205,11.0,15.0,93,0.00,,,0.00,WeatherCatV1.23B16,2013-12-09 03:46:00,
2013-12-09 03:51:00,52.4,50.4,30.06,SSW,197,9.0,14.0,93,0.00,,,0.00,WeatherCatV1.23B16,2013-12-09 03:51:00,
2013-12-09 03:56:00,52.3,50.3,30.06,SSW,203,12.0,16.0,93,0.00,,,0.00,WeatherCatV1.23B16,2013-12-09 03:56:00,
2013-12-09 04:03:00,52.2,50.2,30.06,SSW,200,13.0,13.0,93,0.00,,,0.00,WeatherCatV1.23B16,2013-12-09 04:03:00,
2013-12-09 04:08:00,52.2,50.2,30.06,SW,233,14.0,18.0,93,0.00,,,0.00,WeatherCatV1.23B16,2013-12-09 04:08:00,
2013-12-09 04:13:00,52.2,50.2,30.06,SSE,160,12.0,15.0,93,0.00,,,0.00,WeatherCatV1.23B16,2013-12-09 04:13:00,
2013-12-09 04:19:00,52.2,50.2,30.06,SW,219,10.0,11.0,93,0.00,,,0.00,WeatherCatV1.23B16,2013-12-09 04:19:00,
2013-12-09 04:24:00,52.2,50.2,30.06,SW,226,10.0,15.0,93,0.00,,,0.00,WeatherCatV1.23B16,2013-12-09 04:24:00,
2013-12-09 04:29:00,52.2,50.2,30.06,SSW,200,10.0,13.0,93,0.00,,,0.00,WeatherCatV1.23B16,2013-12-09 04:29:00,
2013-12-09 04:34:00,52.1,50.1,30.06,SSW,202,6.0,12.0,93,0.00,,,0.00,WeatherCatV1.23B16,2013-12-09 04:34:00,
2013-12-09 04:39:00,52.0,50.0,30.06,SSW,212,5.0,11.0,93,0.00,,,0.00,WeatherCatV1.23B16,2013-12-09 04:39:00,
2013-12-09 04:44:00,52.0,50.0,30.06,SW,225,9.0,12.0,93,0.00,,,0.00,WeatherCatV1.23B16,2013-12-09 04:44:00,
2013-12-09 04:49:00,52.0,50.0,30.06,SSW,205,8.0,14.0,93,0.00,,,0.00,WeatherCatV1.23B16,2013-12-09 04:49:00,
2013-12-09 04:54:00,52.0,49.8,30.05,South,187,8.0,14.0,92,0.00,,,0.00,WeatherCatV1.23B16,2013-12-09 04:54:00,
2013-12-09 04:59:00,52.0,49.8,30.05,WSW,242,10.0,12.0,92,0.00,,,0.00,WeatherCatV1.23B16,2013-12-09 04:59:00,
2013-12-09 05:01:00,52.1,49.8,30.06,SE,143,8.0,12.0,92,0.00,,,0.00,WeatherCatV1.23B16,2013-12-09 05:01:00,
2013-12-09 05:02:00,52.0,49.8,30.06,SSW,212,7.0,10.0,92,0.00,,,0.00,WeatherCatV1.23B16,2013-12-09 05:02:00,
2013-12-09 05:03:00,52.1,49.8,30.06,South,172,7.0,10.0,92,0.00,,,0.00,WeatherCatV1.23B16,2013-12-09 05:03:00,
2013-12-09 05:08:00,52.0,49.8,30.06,SW,214,9.0,9.0,92,0.00,,,0.00,WeatherCatV1.23B16,2013-12-09 05:08:00,
2013-12-09 05:13:00,52.0,49.5,30.06,SSW,207,9.0,10.0,91,0.00,,,0.00,WeatherCatV1.23B16,2013-12-09 05:13:00,
2013-12-09 05:18:00,52.0,49.5,30.06,SSW,198,8.0,13.0,91,0.00,,,0.00,WeatherCatV1.23B16,2013-12-09 05:18:00,
2013-12-09 05:23:00,52.1,49.5,30.06,SE,145,9.0,15.0,91,0.00,,,0.00,WeatherCatV1.23B16,2013-12-09 05:23:00,
2013-12-09 05:28:00,52.1,49.5,30.06,SSE,158,9.0,14.0,91,0.00,,,0.00,WeatherCatV1.23B16,2013-12-09 05:28:00,
2013-12-09 05:33:00,52.1,49.5,30.05,SW,225,9.0,16.0,91,0.00,,,0.00,WeatherCatV1.23B16,2013-12-09 05:33:00,
2013-12-09 05:38:00,52.1,49.5,30.06,SSW,210,9.0,12.0,91,0.00,,,0.00,WeatherCatV1.23B16,2013-12-09 05:38:00,
2013-12-09 05:43:00,52.2,49.7,30.06,SW,217,10.0,15.0,91,0.00,,,0.00,WeatherCatV1.23B16,2013-12-09 05:43:00,
2013-12-09 05:48:00,52.1,49.5,30.06,SSW,207,6.0,12.0,91,0.00,,,0.00,WeatherCatV1.23B16,2013-12-09 05:48:00,
2013-12-09 05:53:00,51.9,49.3,30.06,SSW,198,7.0,13.0,91,0.00,,,0.00,WeatherCatV1.23B16,2013-12-09 05:53:00,
2013-12-09 05:58:00,51.4,48.9,30.06,SE,135,6.0,6.0,91,0.00,,,0.00,WeatherCatV1.23B16,2013-12-09 05:58:00,
2013-12-09 06:04:00,51.0,48.8,30.06,SE,144,7.0,12.0,92,0.00,,,0.00,WeatherCatV1.23B16,2013-12-09 06:04:00,
2013-12-09 06:09:00,50.8,48.6,30.06,South,169,7.0,14.0,92,0.00,,,0.00,WeatherCatV1.23B16,2013-12-09 06:09:00,
2013-12-09 06:14:00,50.8,48.6,30.06,SSW,197,8.0,11.0,92,0.00,,,0.00,WeatherCatV1.23B16,2013-12-09 06:14:00,
2013-12-09 06:19:00,50.9,48.7,30.06,SSW,213,7.0,7.0,92,0.00,,,0.00,WeatherCatV1.23B16,2013-12-09 06:19:00,
2013-12-09 06:24:00,50.9,48.7,30.06,SSW,204,8.0,13.0,92,0.00,,,0.00,WeatherCatV1.23B16,2013-12-09 06:24:00,
2013-12-09 06:30:00,51.0,48.8,30.06,SSW,203,9.0,13.0,92,0.00,,,0.00,WeatherCatV1.23B16,2013-12-09 06:30:00,
2013-12-09 06:34:00,50.9,48.7,30.05,SSE,160,10.0,13.0,92,0.00,,,0.00,WeatherCatV1.23B16,2013-12-09 06:34:00,
2013-12-09 06:39:00,50.9,48.7,30.06,South,177,8.0,11.0,92,0.00,,,0.00,WeatherCatV1.23B16,2013-12-09 06:39:00,
2013-12-09 06:44:00,50.8,48.6,30.06,SSE,167,10.0,13.0,92,0.00,,,0.00,WeatherCatV1.23B16,2013-12-09 06:44:00,
2013-12-09 06:49:00,50.6,48.4,30.06,SSW,198,9.0,11.0,92,0.00,,,0.00,WeatherCatV1.23B16,2013-12-09 06:49:00,
2013-12-09 06:54:00,50.4,48.5,30.06,South,177,7.0,11.0,93,0.00,,,0.00,WeatherCatV1.23B16,2013-12-09 06:54:00,
2013-12-09 06:59:00,50.3,48.3,30.06,South,183,9.0,10.0,93,0.00,,,0.00,WeatherCatV1.23B16,2013-12-09 06:59:00,
2013-12-09 07:04:00,50.3,48.3,30.06,South,172,8.0,9.0,93,0.00,,,0.00,WeatherCatV1.23B16,2013-12-09 07:04:00,
2013-12-09 07:10:00,50.3,48.3,30.06,SSE,160,10.0,11.0,93,0.00,,,0.00,WeatherCatV1.23B16,2013-12-09 07:10:00,
2013-12-09 07:15:00,50.5,48.5,30.06,South,186,7.0,12.0,93,0.00,,,0.00,WeatherCatV1.23B16,2013-12-09 07:15:00,
2013-12-09 07:20:00,50.6,48.4,30.06,SSW,194,7.0,9.0,92,0.00,,,0.00,WeatherCatV1.23B16,2013-12-09 07:20:00,
2013-12-09 07:25:00,50.7,48.5,30.06,SSE,155,7.0,10.0,92,0.00,,,0.00,WeatherCatV1.23B16,2013-12-09 07:25:00,
2013-12-09 07:30:00,50.4,47.9,30.06,South,169,10.0,10.0,91,0.00,,,0.00,WeatherCatV1.23B16,2013-12-09 07:30:00,
2013-12-09 07:35:00,50.1,47.9,30.06,SSE,149,12.0,12.0,92,0.00,,,0.00,WeatherCatV1.23B16,2013-12-09 07:35:00,
2013-12-09 07:40:00,50.1,47.9,30.06,SSE,155,10.0,10.0,92,0.00,,,0.00,WeatherCatV1.23B16,2013-12-09 07:40:00,
2013-12-09 07:46:00,50.0,47.5,30.06,SSW,193,9.0,9.0,91,0.00,,,0.00,WeatherCatV1.23B16,2013-12-09 07:46:00,
2013-12-09 07:51:00,49.9,47.7,30.06,South,176,11.0,11.0,92,0.00,,,0.00,WeatherCatV1.23B16,2013-12-09 07:51:00,
2013-12-09 07:56:00,49.9,47.7,30.06,SE,145,5.0,7.0,92,0.00,,,0.00,WeatherCatV1.23B16,2013-12-09 07:56:00,
2013-12-09 08:01:00,49.8,47.6,30.06,South,172,7.0,12.0,92,0.00,,,0.00,WeatherCatV1.23B16,2013-12-09 08:01:00,
2013-12-09 08:06:00,49.7,47.5,30.06,South,175,7.0,11.0,92,0.00,,,0.00,WeatherCatV1.23B16,2013-12-09 08:06:00,
2013-12-09 08:12:00,49.6,47.7,30.06,SE,131,8.0,9.0,93,0.00,,,0.00,WeatherCatV1.23B16,2013-12-09 08:12:00,
2013-12-09 08:17:00,49.6,47.4,30.06,South,180,7.0,10.0,92,0.00,,,0.00,WeatherCatV1.23B16,2013-12-09 08:17:00,
2013-12-09 08:22:00,49.5,47.3,30.06,South,172,12.0,13.0,92,0.00,,,0.00,WeatherCatV1.23B16,2013-12-09 08:22:00,
2013-12-09 08:27:00,49.6,47.4,30.06,SE,125,9.0,10.0,92,0.00,,,0.00,WeatherCatV1.23B16,2013-12-09 08:27:00,
2013-12-09 08:32:00,49.5,47.3,30.06,South,181,6.0,11.0,92,0.00,,,0.00,WeatherCatV1.23B16,2013-12-09 08:32:00,
2013-12-09 08:37:00,49.3,47.1,30.07,South,176,6.0,9.0,92,0.00,,,0.00,WeatherCatV1.23B16,2013-12-09 08:37:00,
2013-12-09 08:42:00,49.2,47.0,30.07,SSE,150,6.0,10.0,92,0.00,,,0.00,WeatherCatV1.23B16,2013-12-09 08:42:00,
2013-12-09 08:47:00,49.0,46.8,30.07,SE,128,8.0,13.0,92,0.00,,,0.00,WeatherCatV1.23B16,2013-12-09 08:47:00,
2013-12-09 08:52:00,48.9,47.0,30.07,SSE,153,8.0,9.0,93,0.00,,,0.00,WeatherCatV1.23B16,2013-12-09 08:52:00,
2013-12-09 08:56:00,48.9,47.0,30.07,SSE,150,9.0,12.0,93,0.00,,,0.00,WeatherCatV1.23B16,2013-12-09 08:56:00,
2013-12-09 09:01:00,48.9,47.0,30.07,ESE,123,8.0,10.0,93,0.00,,,0.00,WeatherCatV1.23B16,2013-12-09 09:01:00,
2013-12-09 09:06:00,49.0,47.1,30.07,SE,141,11.0,13.0,93,0.00,,,0.00,WeatherCatV1.23B16,2013-12-09 09:06:00,
2013-12-09 09:11:00,49.0,47.1,30.07,SSE,163,8.0,11.0,93,0.00,,,0.00,WeatherCatV1.23B16,2013-12-09 09:11:00,
2013-12-09 09:16:00,49.1,47.2,30.07,SE,139,10.0,10.0,93,0.00,,,0.00,WeatherCatV1.23B16,2013-12-09 09:16:00,
2013-12-09 09:21:00,49.1,47.2,30.07,SSE,165,8.0,13.0,93,0.00,,,0.00,WeatherCatV1.23B16,2013-12-09 09:21:00,
2013-12-09 09:26:00,49.0,47.1,30.07,SE,143,12.0,12.0,93,0.00,,,0.00,WeatherCatV1.23B16,2013-12-09 09:26:00,
2013-12-09 09:31:00,49.0,47.1,30.07,SE,124,11.0,11.0,93,0.00,,,0.00,WeatherCatV1.23B16,2013-12-09 09:31:00,
2013-12-09 09:36:00,49.1,46.9,30.07,SE,124,8.0,11.0,92,0.00,,,0.00,WeatherCatV1.23B16,2013-12-09 09:36:00,
2013-12-09 09:41:00,49.1,46.9,30.07,SE,143,6.0,15.0,92,0.00,,,0.00,WeatherCatV1.23B16,2013-12-09 09:41:00,
2013-12-09 09:46:00,49.0,46.8,30.07,South,174,6.0,9.0,92,0.00,,,0.00,WeatherCatV1.23B16,2013-12-09 09:46:00,
2013-12-09 09:52:00,49.0,46.8,30.07,SSE,149,8.0,8.0,92,0.00,,,0.00,WeatherCatV1.23B16,2013-12-09 09:52:00,
2013-12-09 09:57:00,49.0,46.8,30.07,SSE,160,6.0,7.0,92,0.00,,,0.00,WeatherCatV1.23B16,2013-12-09 09:57:00,
2013-12-09 10:02:00,48.9,46.7,30.07,SSE,159,9.0,9.0,92,0.00,,,0.00,WeatherCatV1.23B16,2013-12-09 10:02:00,
2013-12-09 10:07:00,48.9,46.7,30.07,SSE,162,7.0,7.0,92,0.00,,,0.00,WeatherCatV1.23B16,2013-12-09 10:07:00,
2013-12-09 10:12:00,48.9,47.0,30.07,South,169,10.0,11.0,93,0.00,,,0.00,WeatherCatV1.23B16,2013-12-09 10:12:00,
2013-12-09 10:17:00,49.0,46.8,30.07,South,183,8.0,9.0,92,0.00,,,0.00,WeatherCatV1.23B16,2013-12-09 10:17:00,
2013-12-09 10:22:00,49.1,46.9,30.07,SSE,158,7.0,12.0,92,0.00,,,0.00,WeatherCatV1.23B16,2013-12-09 10:22:00,
2013-12-09 10:28:00,49.2,47.0,30.07,SSE,159,8.0,11.0,92,0.00,,,0.00,WeatherCatV1.23B16,2013-12-09 10:28:00,
2013-12-09 10:33:00,49.3,47.1,30.06,SE,146,9.0,13.0,92,0.00,,,0.00,WeatherCatV1.23B16,2013-12-09 10:33:00,
2013-12-09 10:38:00,49.3,47.1,30.07,SSE,155,9.0,12.0,92,0.00,,,0.00,WeatherCatV1.23B16,2013-12-09 10:38:00,
2013-12-09 10:43:00,49.4,46.9,30.07,SSE,160,8.0,17.0,91,0.00,,,0.00,WeatherCatV1.23B16,2013-12-09 10:43:00,
2013-12-09 10:48:00,49.4,46.9,30.06,SSE,147,11.0,11.0,91,0.00,,,0.00,WeatherCatV1.23B16,2013-12-09 10:48:00,
2013-12-09 10:53:00,49.4,46.9,30.06,SE,139,9.0,14.0,91,0.00,,,0.00,WeatherCatV1.23B16,2013-12-09 10:53:00,
2013-12-09 10:58:00,49.5,47.3,30.06,South,179,10.0,16.0,92,0.00,,,0.00,WeatherCatV1.23B16,2013-12-09 10:58:00,
2013-12-09 11:00:00,49.5,47.0,30.06,SSE,159,7.0,16.0,91,0.00,,,0.00,WeatherCatV1.23B16,2013-12-09 11:00:00,
2013-12-09 11:05:00,49.6,47.1,30.06,SSE,158,9.0,11.0,91,0.00,,,0.00,WeatherCatV1.23B16,2013-12-09 11:05:00,
2013-12-09 11:10:00,49.7,47.2,30.06,SE,141,7.0,11.0,91,0.00,,,0.00,WeatherCatV1.23B16,2013-12-09 11:10:00,
2013-12-09 11:15:00,49.8,47.3,30.06,SSE,160,7.0,10.0,91,0.00,,,0.00,WeatherCatV1.23B16,2013-12-09 11:15:00,
2013-12-09 11:20:00,49.8,47.3,30.05,SE,138,10.0,11.0,91,0.00,,,0.00,WeatherCatV1.23B16,2013-12-09 11:20:00,
2013-12-09 11:26:00,49.9,47.4,30.05,South,172,7.0,12.0,91,0.00,,,0.00,WeatherCatV1.23B16,2013-12-09 11:26:00,
2013-12-09 11:31:00,50.1,47.6,30.05,SSE,159,6.0,9.0,91,0.00,,,0.00,WeatherCatV1.23B16,2013-12-09 11:31:00,
2013-12-09 11:36:00,50.1,47.6,30.05,SSE,149,8.0,12.0,91,0.00,,,0.00,WeatherCatV1.23B16,2013-12-09 11:36:00,
2013-12-09 11:41:00,50.3,47.8,30.05,South,179,6.0,7.0,91,0.00,,,0.00,WeatherCatV1.23B16,2013-12-09 11:41:00,
2013-12-09 11:46:00,50.4,47.9,30.05,SSE,167,5.0,10.0,91,0.00,,,0.00,WeatherCatV1.23B16,2013-12-09 11:46:00,
2013-12-09 11:51:00,50.6,48.1,30.05,South,177,4.0,6.0,91,0.00,,,0.00,WeatherCatV1.23B16,2013-12-09 11:51:00,
2013-12-09 11:56:00,50.8,48.3,30.04,SE,135,4.0,6.0,91,0.00,,,0.00,WeatherCatV1.23B16,2013-12-09 11:56:00,
2013-12-09 12:01:00,50.8,48.3,30.04,South,179,4.0,9.0,91,0.00,,,0.00,WeatherCatV1.23B16,2013-12-09 12:01:00,
2013-12-09 12:06:00,50.9,48.1,30.04,SE,139,9.0,10.0,90,0.00,,,0.00,WeatherCatV1.23B16,2013-12-09 12:06:00,
2013-12-09 12:11:00,50.8,48.3,30.04,SSE,156,9.0,12.0,91,0.00,,,0.00,WeatherCatV1.23B16,2013-12-09 12:11:00,
2013-12-09 12:16:00,51.0,48.5,30.04,SSE,158,10.0,12.0,91,0.00,,,0.00,WeatherCatV1.23B16,2013-12-09 12:16:00,
2013-12-09 12:21:00,51.1,48.3,30.03,South,181,5.0,9.0,90,0.00,,,0.00,WeatherCatV1.23B16,2013-12-09 12:21:00,
2013-12-09 12:26:00,51.2,48.4,30.03,South,170,10.0,11.0,90,0.00,,,0.00,WeatherCatV1.23B16,2013-12-09 12:26:00,
2013-12-09 12:31:00,51.4,48.6,30.03,SSE,156,7.0,10.0,90,0.00,,,0.00,WeatherCatV1.23B16,2013-12-09 12:31:00,
2013-12-09 12:36:00,51.8,49.0,30.03,SE,124,16.0,16.0,90,0.00,,,0.00,WeatherCatV1.23B16,2013-12-09 12:36:00,
2013-12-09 12:41:00,51.6,48.5,30.03,South,172,9.0,12.0,89,0.00,,,0.00,WeatherCatV1.23B16,2013-12-09 12:41:00,
2013-12-09 12:46:00,51.6,48.5,30.03,South,186,10.0,10.0,89,0.00,,,0.00,WeatherCatV1.23B16,2013-12-09 12:46:00,
2013-12-09 12:51:00,51.6,48.5,30.03,SSE,150,8.0,14.0,89,0.00,,,0.00,WeatherCatV1.23B16,2013-12-09 12:51:00,
2013-12-09 12:56:00,51.7,48.6,30.03,SE,145,11.0,12.0,89,0.00,,,0.00,WeatherCatV1.23B16,2013-12-09 12:56:00,
2013-12-09 13:01:00,52.0,48.9,30.03,SE,143,8.0,11.0,89,0.00,,,0.00,WeatherCatV1.23B16,2013-12-09 13:01:00,
2013-12-09 13:06:00,52.4,49.0,30.02,SSE,163,12.0,14.0,88,0.00,,,0.00,WeatherCatV1.23B16,2013-12-09 13:06:00,
2013-12-09 13:11:00,52.5,48.7,30.03,SSE,155,13.0,16.0,87,0.00,,,0.00,WeatherCatV1.23B16,2013-12-09 13:11:00,
2013-12-09 13:16:00,52.6,48.5,30.02,ESE,114,16.0,16.0,86,0.00,,,0.00,WeatherCatV1.23B16,2013-12-09 13:16:00,
2013-12-09 13:21:00,52.4,48.3,30.02,South,176,7.0,14.0,86,0.00,,,0.00,WeatherCatV1.23B16,2013-12-09 13:21:00,
2013-12-09 13:26:00,52.2,48.5,30.02,SSE,155,8.0,13.0,87,0.00,,,0.00,WeatherCatV1.23B16,2013-12-09 13:26:00,
2013-12-09 13:31:00,52.4,48.6,30.02,SSE,162,12.0,16.0,87,0.00,,,0.00,WeatherCatV1.23B16,2013-12-09 13:31:00,
2013-12-09 13:36:00,52.6,48.5,30.02,SE,138,11.0,15.0,86,0.00,,,0.00,WeatherCatV1.23B16,2013-12-09 13:36:00,
2013-12-09 13:41:00,52.7,48.6,30.02,SE,144,11.0,14.0,86,0.00,,,0.00,WeatherCatV1.23B16,2013-12-09 13:41:00,
2013-12-09 13:46:00,52.8,48.7,30.02,SSW,195,8.0,14.0,86,0.00,,,0.00,WeatherCatV1.23B16,2013-12-09 13:46:00,
2013-12-09 13:51:00,52.6,48.5,30.02,South,170,12.0,12.0,86,0.00,,,0.00,WeatherCatV1.23B16,2013-12-09 13:51:00,
2013-12-09 13:56:00,52.5,48.4,30.02,South,177,9.0,13.0,86,0.00,,,0.00,WeatherCatV1.23B16,2013-12-09 13:56:00,
2013-12-09 14:02:00,52.5,48.7,30.02,SSE,152,10.0,10.0,87,0.00,,,0.00,WeatherCatV1.23B16,2013-12-09 14:02:00,
2013-12-09 14:07:00,52.9,48.8,30.02,SE,142,12.0,14.0,86,0.00,,,0.00,WeatherCatV1.23B16,2013-12-09 14:07:00,
2013-12-09 14:12:00,53.0,48.9,30.02,SSE,163,6.0,10.0,86,0.00,,,0.00,WeatherCatV1.23B16,2013-12-09 14:12:00,
2013-12-09 14:17:00,52.6,48.5,30.02,South,187,7.0,13.0,86,0.00,,,0.00,WeatherCatV1.23B16,2013-12-09 14:17:00,
2013-12-09 14:22:00,52.8,49.0,30.01,South,172,10.0,10.0,87,0.00,,,0.00,WeatherCatV1.23B16,2013-12-09 14:22:00,
2013-12-09 14:28:00,53.1,48.7,30.01,SSE,158,8.0,16.0,85,0.00,,,0.00,WeatherCatV1.23B16,2013-12-09 14:28:00,
2013-12-09 14:33:00,53.2,48.8,30.01,SE,139,11.0,11.0,85,0.00,,,0.00,WeatherCatV1.23B16,2013-12-09 14:33:00,
2013-12-09 14:38:00,52.9,48.5,30.01,SE,139,6.0,10.0,85,0.00,,,0.00,WeatherCatV1.23B16,2013-12-09 14:38:00,
2013-12-09 14:43:00,52.6,48.5,30.01,SE,144,7.0,15.0,86,0.00,,,0.00,WeatherCatV1.23B16,2013-12-09 14:43:00,
2013-12-09 14:48:00,52.4,48.3,30.01,South,169,6.0,13.0,86,0.00,,,0.00,WeatherCatV1.23B16,2013-12-09 14:48:00,
2013-12-09 14:53:00,52.4,48.3,30.01,South,172,10.0,10.0,86,0.00,,,0.00,WeatherCatV1.23B16,2013-12-09 14:53:00,
2013-12-09 14:59:00,52.3,48.2,30.01,SSE,162,6.0,7.0,86,0.00,,,0.00,WeatherCatV1.23B16,2013-12-09 14:59:00,
2013-12-09 15:04:00,52.2,48.5,30.01,SE,143,10.0,10.0,87,0.00,,,0.00,WeatherCatV1.23B16,2013-12-09 15:04:00,
2013-12-09 15:09:00,52.1,48.3,30.01,SSE,162,10.0,12.0,87,0.00,,,0.00,WeatherCatV1.23B16,2013-12-09 15:09:00,
2013-12-09 15:14:00,52.1,48.3,30.01,SSE,150,9.0,12.0,87,0.00,,,0.00,WeatherCatV1.23B16,2013-12-09 15:14:00,
2013-12-09 15:19:00,52.0,48.2,30.01,SE,141,10.0,11.0,87,0.00,,,0.00,WeatherCatV1.23B16,2013-12-09 15:19:00,
2013-12-09 15:24:00,52.2,48.1,30.00,SE,139,12.0,12.0,86,0.00,,,0.00,WeatherCatV1.23B16,2013-12-09 15:24:00,
2013-12-09 15:29:00,52.2,48.1,30.00,SSE,150,9.0,9.0,86,0.00,,,0.00,WeatherCatV1.23B16,2013-12-09 15:29:00,
2013-12-09 15:34:00,52.1,48.0,30.00,SSE,156,7.0,13.0,86,0.00,,,0.00,WeatherCatV1.23B16,2013-12-09 15:34:00,
2013-12-09 15:39:00,52.0,47.9,30.00,SSE,165,9.0,10.0,86,0.00,,,0.00,WeatherCatV1.23B16,2013-12-09 15:39:00,
2013-12-09 15:44:00,52.0,47.9,30.00,SSE,165,11.0,12.0,86,0.00,,,0.00,WeatherCatV1.23B16,2013-12-09 15:44:00,
2013-12-09 15:49:00,52.0,47.9,30.00,SE,133,9.0,15.0,86,0.00,,,0.00,WeatherCatV1.23B16,2013-12-09 15:49:00,
2013-12-09 15:54:00,52.1,47.7,30.00,SSE,165,9.0,10.0,85,0.00,,,0.00,WeatherCatV1.23B16,2013-12-09 15:54:00,
2013-12-09 15:59:00,52.1,47.7,30.00,SE,141,11.0,13.0,85,0.00,,,0.00,WeatherCatV1.23B16,2013-12-09 15:59:00,
2013-12-09 16:04:00,52.1,47.7,30.00,SSE,167,12.0,12.0,85,0.00,,,0.00,WeatherCatV1.23B16,2013-12-09 16:04:00,
2013-12-09 16:09:00,52.2,47.5,30.00,SE,135,10.0,10.0,84,0.00,,,0.00,WeatherCatV1.23B16,2013-12-09 16:09:00,
2013-12-09 16:14:00,52.2,47.2,30.00,SSE,156,9.0,11.0,83,0.00,,,0.00,WeatherCatV1.23B16,2013-12-09 16:14:00,
2013-12-09 16:19:00,52.2,46.9,29.99,South,177,11.0,13.0,82,0.00,,,0.00,WeatherCatV1.23B16,2013-12-09 16:19:00,
2013-12-09 16:24:00,52.2,46.9,30.00,South,176,10.0,17.0,82,0.00,,,0.00,WeatherCatV1.23B16,2013-12-09 16:24:00,
2013-12-09 16:30:00,52.2,46.9,30.00,South,188,9.0,12.0,82,0.00,,,0.00,WeatherCatV1.23B16,2013-12-09 16:30:00,
2013-12-09 16:35:00,52.1,46.8,30.00,SSW,195,6.0,11.0,82,0.00,,,0.00,WeatherCatV1.23B16,2013-12-09 16:35:00,
2013-12-09 16:40:00,52.0,47.0,30.00,SSE,160,10.0,10.0,83,0.00,,,0.00,WeatherCatV1.23B16,2013-12-09 16:40:00,
2013-12-09 16:45:00,51.7,46.7,30.00,South,170,9.0,11.0,83,0.00,,,0.00,WeatherCatV1.23B16,2013-12-09 16:45:00,
2013-12-09 16:50:00,51.6,46.6,30.00,SSE,149,8.0,13.0,83,0.00,,,0.00,WeatherCatV1.23B16,2013-12-09 16:50:00,
2013-12-09 16:55:00,51.5,46.5,30.00,SSE,159,9.0,13.0,83,0.00,,,0.00,WeatherCatV1.23B16,2013-12-09 16:55:00,
2013-12-09 17:00:00,51.3,46.3,30.00,ESE,113,10.0,11.0,83,0.00,,,0.00,WeatherCatV1.23B16,2013-12-09 17:00:00,
2013-12-09 17:05:00,51.1,46.1,30.00,SSE,149,7.0,18.0,83,0.00,,,0.00,WeatherCatV1.23B16,2013-12-09 17:05:00,
2013-12-09 17:10:00,50.9,45.9,30.00,South,191,6.0,12.0,83,0.00,,,0.00,WeatherCatV1.23B16,2013-12-09 17:10:00,
2013-12-09 17:15:00,50.8,45.8,30.00,SE,130,9.0,15.0,83,0.00,,,0.00,WeatherCatV1.23B16,2013-12-09 17:15:00,
2013-12-09 17:20:00,50.7,45.7,30.00,SE,134,9.0,14.0,83,0.00,,,0.00,WeatherCatV1.23B16,2013-12-09 17:20:00,
2013-12-09 17:26:00,50.6,45.6,29.99,ESE,121,10.0,12.0,83,0.00,,,0.00,WeatherCatV1.23B16,2013-12-09 17:26:00,
2013-12-09 17:31:00,50.4,45.4,29.99,SSE,166,11.0,13.0,83,0.00,,,0.00,WeatherCatV1.23B16,2013-12-09 17:31:00,
2013-12-09 17:36:00,50.3,45.3,29.99,SE,130,9.0,15.0,83,0.00,,,0.00,WeatherCatV1.23B16,2013-12-09 17:36:00,
2013-12-09 17:41:00,50.2,45.2,29.99,SE,135,9.0,15.0,83,0.00,,,0.00,WeatherCatV1.23B16,2013-12-09 17:41:00,
2013-12-09 17:46:00,50.1,45.1,29.99,East,93,6.0,13.0,83,0.00,,,0.00,WeatherCatV1.23B16,2013-12-09 17:46:00,
2013-12-09 17:51:00,50.0,45.4,30.00,SSE,155,10.0,12.0,84,0.00,,,0.00,WeatherCatV1.23B16,2013-12-09 17:51:00,
2013-12-09 17:56:00,49.9,45.3,29.99,SE,133,10.0,11.0,84,0.00,,,0.00,WeatherCatV1.23B16,2013-12-09 17:56:00,
2013-12-09 18:01:00,49.7,45.4,29.99,SSE,165,5.0,15.0,85,0.00,,,0.00,WeatherCatV1.23B16,2013-12-09 18:01:00,
2013-12-09 18:06:00,49.5,45.5,29.99,ESE,121,5.0,11.0,86,0.00,,,0.00,WeatherCatV1.23B16,2013-12-09 18:06:00,
2013-12-09 18:11:00,49.5,45.5,29.98,SE,145,10.0,12.0,86,0.00,,,0.00,WeatherCatV1.23B16,2013-12-09 18:11:00,
2013-12-09 18:16:00,49.4,45.4,29.98,SSE,166,6.0,12.0,86,0.00,,,0.00,WeatherCatV1.23B16,2013-12-09 18:16:00,
2013-12-09 18:21:00,49.4,45.4,29.98,SE,141,8.0,14.0,86,0.00,,,0.00,WeatherCatV1.23B16,2013-12-09 18:21:00,
2013-12-09 18:26:00,49.5,45.8,29.98,SSE,164,10.0,13.0,87,0.00,,,0.00,WeatherCatV1.23B16,2013-12-09 18:26:00,
2013-12-09 18:31:00,49.6,45.6,29.98,South,180,7.0,12.0,86,0.00,,,0.00,WeatherCatV1.23B16,2013-12-09 18:31:00,
2013-12-09 18:36:00,49.6,45.9,29.98,ESE,108,4.0,9.0,87,0.00,,,0.00,WeatherCatV1.23B16,2013-12-09 18:36:00,
2013-12-09 18:41:00,49.5,45.8,29.98,South,173,10.0,11.0,87,0.00,,,0.00,WeatherCatV1.23B16,2013-12-09 18:41:00,
2013-12-09 18:46:00,49.5,45.8,29.98,SSE,158,6.0,11.0,87,0.00,,,0.00,WeatherCatV1.23B16,2013-12-09 18:46:00,
2013-12-09 18:51:00,49.4,46.0,29.98,ESE,113,12.0,12.0,88,0.00,,,0.00,WeatherCatV1.23B16,2013-12-09 18:51:00,
2013-12-09 18:56:00,49.3,45.9,29.98,SE,135,6.0,12.0,88,0.00,,,0.00,WeatherCatV1.23B16,2013-12-09 18:56:00,
2013-12-09 19:02:00,49.3,46.2,29.98,South,169,8.0,14.0,89,0.00,,,0.00,WeatherCatV1.23B16,2013-12-09 19:02:00,
2013-12-09 19:07:00,49.4,46.0,29.97,SSE,149,9.0,14.0,88,0.00,,,0.00,WeatherCatV1.23B16,2013-12-09 19:07:00,
2013-12-09 19:12:00,49.5,46.4,29.97,SE,139,7.0,8.0,89,0.00,,,0.00,WeatherCatV1.23B16,2013-12-09 19:12:00,
2013-12-09 19:17:00,49.6,46.5,29.98,SSE,148,9.0,11.0,89,0.00,,,0.00,WeatherCatV1.23B16,2013-12-09 19:17:00,
2013-12-09 19:22:00,49.7,46.6,29.98,SSE,167,7.0,11.0,89,0.00,,,0.00,WeatherCatV1.23B16,2013-12-09 19:22:00,
2013-12-09 19:27:00,49.7,46.6,29.98,SE,135,6.0,6.0,89,0.00,,,0.00,WeatherCatV1.23B16,2013-12-09 19:27:00,
2013-12-09 19:32:00,49.8,46.7,29.98,South,191,3.0,5.0,89,0.00,,,0.00,WeatherCatV1.23B16,2013-12-09 19:32:00,
2013-12-09 19:37:00,49.9,46.8,29.98,SSE,148,6.0,8.0,89,0.00,,,0.00,WeatherCatV1.23B16,2013-12-09 19:37:00,
2013-12-09 19:43:00,49.9,46.8,29.98,SSE,164,7.0,7.0,89,0.00,,,0.00,WeatherCatV1.23B16,2013-12-09 19:43:00,
2013-12-09 19:48:00,50.0,46.9,29.97,SSE,153,7.0,13.0,89,0.00,,,0.00,WeatherCatV1.23B16,2013-12-09 19:48:00,
2013-12-09 19:53:00,50.1,47.0,29.97,SSE,155,8.0,13.0,89,0.00,,,0.00,WeatherCatV1.23B16,2013-12-09 19:53:00,
2013-12-09 19:59:00,50.1,47.0,29.97,SE,136,7.0,17.0,89,0.00,,,0.00,WeatherCatV1.23B16,2013-12-09 19:59:00,
2013-12-09 20:04:00,50.1,47.0,29.96,East,97,13.0,15.0,89,0.00,,,0.00,WeatherCatV1.23B16,2013-12-09 20:04:00,
2013-12-09 20:09:00,50.2,47.1,29.96,SSE,156,14.0,14.0,89,0.00,,,0.00,WeatherCatV1.23B16,2013-12-09 20:09:00,
2013-12-09 20:14:00,50.3,47.2,29.96,SE,141,14.0,18.0,89,0.00,,,0.00,WeatherCatV1.23B16,2013-12-09 20:14:00,
2013-12-09 20:19:00,50.4,47.3,29.96,SE,145,14.0,17.0,89,0.00,,,0.00,WeatherCatV1.23B16,2013-12-09 20:19:00,
2013-12-09 20:24:00,50.5,47.4,29.97,South,191,10.0,17.0,89,0.00,,,0.00,WeatherCatV1.23B16,2013-12-09 20:24:00,
2013-12-09 20:29:00,50.5,47.4,29.97,SSE,155,12.0,12.0,89,0.00,,,0.00,WeatherCatV1.23B16,2013-12-09 20:29:00,
2013-12-09 20:34:00,50.5,47.4,29.97,SSE,162,8.0,16.0,89,0.00,,,0.00,WeatherCatV1.23B16,2013-12-09 20:34:00,
2013-12-09 20:39:00,50.5,47.4,29.97,ESE,107,12.0,17.0,89,0.00,,,0.00,WeatherCatV1.23B16,2013-12-09 20:39:00,
2013-12-09 20:44:00,50.6,47.5,29.97,SE,135,8.0,17.0,89,0.00,,,0.00,WeatherCatV1.23B16,2013-12-09 20:44:00,
2013-12-09 20:49:00,50.6,47.5,29.97,SE,143,18.0,18.0,89,0.00,,,0.00,WeatherCatV1.23B16,2013-12-09 20:49:00,
2013-12-09 20:54:00,50.6,47.5,29.97,SE,141,10.0,14.0,89,0.00,,,0.00,WeatherCatV1.23B16,2013-12-09 20:54:00,
2013-12-09 20:59:00,50.6,47.5,29.97,SSE,155,9.0,11.0,89,0.00,,,0.00,WeatherCatV1.23B16,2013-12-09 20:59:00,
2013-12-09 21:04:00,50.8,47.7,29.97,SE,144,11.0,15.0,89,0.00,,,0.00,WeatherCatV1.23B16,2013-12-09 21:04:00,
2013-12-09 21:09:00,50.8,47.7,29.96,SSE,149,7.0,13.0,89,0.00,,,0.00,WeatherCatV1.23B16,2013-12-09 21:09:00,
2013-12-09 21:14:00,50.8,47.7,29.97,SSE,150,14.0,14.0,89,0.00,,,0.00,WeatherCatV1.23B16,2013-12-09 21:14:00,
2013-12-09 21:19:00,50.8,47.7,29.96,SE,139,8.0,12.0,89,0.00,,,0.00,WeatherCatV1.23B16,2013-12-09 21:19:00,
2013-12-09 21:24:00,50.9,47.8,29.96,South,186,10.0,13.0,89,0.00,,,0.00,WeatherCatV1.23B16,2013-12-09 21:24:00,
2013-12-09 21:29:00,50.9,47.8,29.96,SE,131,10.0,14.0,89,0.00,,,0.00,WeatherCatV1.23B16,2013-12-09 21:29:00,
2013-12-09 21:34:00,51.0,47.9,29.96,SE,143,14.0,16.0,89,0.00,,,0.00,WeatherCatV1.23B16,2013-12-09 21:34:00,
2013-12-09 21:39:00,50.9,47.8,29.96,SE,128,11.0,11.0,89,0.00,,,0.00,WeatherCatV1.23B16,2013-12-09 21:39:00,
2013-12-09 21:44:00,50.9,47.8,29.97,South,176,12.0,12.0,89,0.00,,,0.00,WeatherCatV1.23B16,2013-12-09 21:44:00,
2013-12-09 21:49:00,50.9,47.8,29.97,SSE,150,12.0,13.0,89,0.00,,,0.00,WeatherCatV1.23B16,2013-12-09 21:49:00,
2013-12-09 21:55:00,50.8,47.7,29.96,SSE,157,9.0,13.0,89,0.00,,,0.00,WeatherCatV1.23B16,2013-12-09 21:55:00,
2013-12-09 22:00:00,50.8,47.7,29.96,SSE,157,11.0,15.0,89,0.00,,,0.00,WeatherCatV1.23B16,2013-12-09 22:00:00,
2013-12-09 22:05:00,50.8,47.7,29.96,South,170,9.0,9.0,89,0.00,,,0.00,WeatherCatV1.23B16,2013-12-09 22:05:00,
2013-12-09 22:10:00,50.7,47.9,29.96,SE,139,15.0,16.0,90,0.00,,,0.00,WeatherCatV1.23B16,2013-12-09 22:10:00,
2013-12-09 22:15:00,50.8,48.0,29.96,SE,128,11.0,11.0,90,0.00,,,0.00,WeatherCatV1.23B16,2013-12-09 22:15:00,
2013-12-09 22:20:00,50.8,48.0,29.96,SE,141,8.0,14.0,90,0.00,,,0.00,WeatherCatV1.23B16,2013-12-09 22:20:00,
2013-12-09 22:25:00,50.8,48.0,29.96,SSE,149,14.0,16.0,90,0.00,,,0.00,WeatherCatV1.23B16,2013-12-09 22:25:00,
2013-12-09 22:30:00,50.9,48.1,29.96,SSE,158,8.0,13.0,90,0.00,,,0.00,WeatherCatV1.23B16,2013-12-09 22:30:00,
2013-12-09 22:35:00,50.9,48.1,29.96,SE,124,9.0,15.0,90,0.00,,,0.00,WeatherCatV1.23B16,2013-12-09 22:35:00,
2013-12-09 22:40:00,50.8,48.0,29.96,SE,136,9.0,11.0,90,0.00,,,0.00,WeatherCatV1.23B16,2013-12-09 22:40:00,
2013-12-09 22:45:00,50.8,48.3,29.97,SE,132,8.0,16.0,91,0.00,,,0.00,WeatherCatV1.23B16,2013-12-09 22:45:00,
2013-12-09 22:50:00,50.9,48.1,29.97,SSE,156,14.0,14.0,90,0.00,,,0.00,WeatherCatV1.23B16,2013-12-09 22:50:00,
2013-12-09 22:55:00,50.9,48.1,29.96,SSE,153,7.0,11.0,90,0.00,,,0.00,WeatherCatV1.23B16,2013-12-09 22:55:00,
2013-12-09 23:00:00,51.0,48.5,29.96,SE,135,14.0,14.0,91,0.00,,,0.00,WeatherCatV1.23B16,2013-12-09 23:00:00,
2013-12-09 23:06:00,51.0,48.5,29.96,SSE,164,8.0,12.0,91,0.00,,,0.00,WeatherCatV1.23B16,2013-12-09 23:06:00,
2013-12-09 23:11:00,51.0,48.5,29.96,SE,145,12.0,15.0,91,0.00,,,0.00,WeatherCatV1.23B16,2013-12-09 23:11:00,
2013-12-09 23:16:00,51.0,48.5,29.96,SSE,150,10.0,14.0,91,0.00,,,0.00,WeatherCatV1.23B16,2013-12-09 23:16:00,
2013-12-09 23:21:00,51.0,48.5,29.96,SSE,150,8.0,15.0,91,0.00,,,0.00,WeatherCatV1.23B16,2013-12-09 23:21:00,
2013-12-09 23:26:00,50.9,48.4,29.96,SE,129,7.0,10.0,91,0.00,,,0.00,WeatherCatV1.23B16,2013-12-09 23:26:00,
2013-12-09 23:31:00,50.9,48.7,29.96,SSE,148,7.0,11.0,92,0.00,,,0.00,WeatherCatV1.23B16,2013-12-09 23:31:00,
2013-12-09 23:36:00,50.9,48.7,29.96,SE,137,10.0,12.0,92,0.00,,,0.00,WeatherCatV1.23B16,2013-12-09 23:36:00,
2013-12-09 23:41:00,50.9,48.7,29.96,SSE,158,13.0,13.0,92,0.00,,,0.00,WeatherCatV1.23B16,2013-12-09 23:41:00,
2013-12-09 23:46:00,50.9,48.7,29.96,SSE,158,13.0,14.0,92,0.00,,,0.00,WeatherCatV1.23B16,2013-12-09 23:46:00,
2013-12-09 23:51:00,50.9,48.7,29.95,SE,139,12.0,13.0,92,0.00,,,0.00,WeatherCatV1.23B16,2013-12-09 23:51:00,
2013-12-09 23:56:00,50.9,48.7,29.95,SSE,159,10.0,12.0,92,0.00,,,0.00,WeatherCatV1.23B16,2013-12-09 23:56:00,